Time;durP1;ratioP1;P1;durP2;ratioP2;P2;SDS_P1;SDS_P2;PMS_P1;PMS_P2;Temp;Humidity;BMP_temperature;BMP_pressure;BME280_temperature;BME280_humidity;BME280_pressure;Samples;Min_cycle;Max_cycle;Signal;HPM_P1;HPM_P2
2022/03/07 00:00:38;;;;;;;9.63;3.85;;;1.10;95.70;;;0.73;58.19;101974.75;5148741;28;20058;-70
2022/03/07 00:03:10;;;;;;;7.25;3.60;;;1.10;95.20;;;0.74;59.09;101979.13;5162023;28;20057;-70
2022/03/07 00:05:42;;;;;;;9.95;4.00;;;1.10;95.70;;;0.75;58.61;101978.38;5164465;28;20503;-71
2022/03/07 00:08:16;;;;;;;6.65;3.83;;;1.10;95.60;;;0.79;58.79;101972.75;5145843;28;20070;-70
2022/03/07 00:10:48;;;;;;;7.43;3.67;;;1.10;95.40;;;0.82;58.59;101979.84;5150731;28;20487;-69
2022/03/07 00:13:21;;;;;;;7.65;3.60;;;1.10;95.50;;;0.82;58.97;101977.25;5161463;28;20054;-69
2022/03/07 00:15:53;;;;;;;9.85;4.15;;;1.10;95.60;;;0.80;58.73;101974.56;5157984;28;20046;-70
2022/03/07 00:18:25;;;;;;;7.82;3.53;;;1.10;95.70;;;0.79;59.02;101977.00;5162082;28;20042;-69
2022/03/07 00:20:57;;;;;;;10.65;3.63;;;1.10;96.10;;;0.79;59.25;101983.03;5156079;28;20053;-71
2022/03/07 00:23:30;;;;;;;7.45;3.45;;;1.10;96.40;;;0.82;59.67;101987.53;5164501;28;20053;-71
2022/03/07 00:26:02;;;;;;;9.35;3.80;;;1.10;96.30;;;0.82;59.95;101985.88;5174988;28;20046;-70
2022/03/07 00:28:34;;;;;;;8.20;3.65;;;1.10;97.00;;;0.84;60.27;101990.22;5185094;28;20050;-70
2022/03/07 00:31:07;;;;;;;8.30;3.70;;;1.10;97.10;;;0.85;60.42;101992.03;5184862;28;20054;-69
2022/03/07 00:33:40;;;;;;;9.63;4.10;;;1.10;97.30;;;0.85;60.49;101994.59;5185253;28;20056;-70
2022/03/07 00:36:12;;;;;;;8.73;3.63;;;1.20;97.40;;;0.88;60.59;102002.59;5185344;28;20068;-70
2022/03/07 00:38:45;;;;;;;7.70;3.75;;;1.20;97.50;;;0.90;60.86;102011.34;5184571;28;20069;-70
2022/03/07 00:41:17;;;;;;;10.30;3.85;;;1.20;97.70;;;0.93;61.28;102011.66;5184908;28;20052;-70
2022/03/07 00:43:49;;;;;;;11.57;5.18;;;1.20;97.90;;;0.95;61.01;102010.13;5185064;28;20387;-70
2022/03/07 00:46:21;;;;;;;10.82;3.63;;;1.30;98.10;;;0.97;61.32;102008.56;5184667;28;20050;-71
2022/03/07 00:48:53;;;;;;;8.75;4.28;;;1.30;98.10;;;1.00;61.07;102006.31;5184728;28;20418;-70
2022/03/07 00:51:25;;;;;;;6.38;3.03;;;1.30;97.80;;;1.02;61.37;102009.91;5185317;28;20133;-69
2022/03/07 00:53:59;;;;;;;9.38;3.65;;;1.30;97.80;;;1.01;60.85;102009.00;5184936;28;20487;-70
2022/03/07 00:56:31;;;;;;;7.57;3.88;;;1.30;98.00;;;1.01;60.95;102010.69;5185300;28;20049;-70
2022/03/07 00:59:03;;;;;;;7.65;3.40;;;1.30;98.10;;;1.02;61.84;102012.47;5171248;28;20042;-70
2022/03/07 01:01:35;;;;;;;8.50;3.80;;;1.30;98.40;;;1.01;62.02;102008.09;5184018;28;20042;-70
2022/03/07 01:04:07;;;;;;;7.68;3.67;;;1.30;98.90;;;1.00;62.31;102006.31;5183089;28;20471;-71
2022/03/07 01:06:39;;;;;;;6.85;3.72;;;1.30;99.20;;;0.99;62.46;102001.94;5180145;28;20046;-70
2022/03/07 01:09:13;;;;;;;8.85;4.32;;;1.30;99.20;;;0.95;62.81;102000.75;5184426;28;20415;-70
2022/03/07 01:11:45;;;;;;;9.35;4.18;;;1.30;99.10;;;0.92;62.77;102002.16;5184844;28;20064;-69
2022/03/07 01:14:17;;;;;;;7.38;3.92;;;1.30;99.20;;;0.88;62.88;101993.25;5184422;28;20064;-69
2022/03/07 01:16:49;;;;;;;6.97;3.78;;;1.20;99.10;;;0.85;62.52;101997.16;5184558;28;20060;-70
2022/03/07 01:19:21;;;;;;;9.23;3.97;;;1.20;99.20;;;0.80;63.12;102002.81;5184322;28;20054;-70
2022/03/07 01:21:53;;;;;;;9.43;3.40;;;1.20;99.30;;;0.76;63.08;101998.13;5184235;28;20056;-70
2022/03/07 01:24:26;;;;;;;7.32;3.92;;;1.10;99.50;;;0.72;63.16;102006.34;5182563;28;20060;-72
2022/03/07 01:26:58;;;;;;;8.27;3.63;;;1.10;99.60;;;0.66;63.04;101995.50;5182401;28;20506;-70
2022/03/07 01:29:30;;;;;;;6.85;3.42;;;1.10;99.60;;;0.62;63.24;101993.38;5184339;28;20072;-69
2022/03/07 01:32:02;;;;;;;6.50;3.78;;;1.00;99.80;;;0.58;63.82;101990.38;5184720;28;20053;-70
2022/03/07 01:34:35;;;;;;;8.05;3.42;;;1.00;99.90;;;0.52;63.84;101986.50;5184497;28;20050;-69
2022/03/07 01:37:07;;;;;;;8.50;3.70;;;0.90;99.90;;;0.49;64.04;101995.56;5184057;28;20050;-70
2022/03/07 01:39:40;;;;;;;9.05;4.40;;;0.90;99.90;;;0.44;63.91;101992.56;5184443;28;20046;-70
2022/03/07 01:42:12;;;;;;;8.18;3.55;;;0.80;99.90;;;0.43;64.03;102000.13;5184411;28;20072;-70
2022/03/07 01:44:44;;;;;;;9.25;3.70;;;0.80;99.90;;;0.41;64.21;101987.16;5184504;28;20054;-70
2022/03/07 01:47:16;;;;;;;6.45;3.45;;;0.80;99.90;;;0.40;64.62;101979.31;5184117;28;20147;-70
2022/03/07 01:49:52;;;;;;;9.60;4.53;;;0.80;99.90;;;0.38;64.09;101980.81;5184248;28;20391;-70
2022/03/07 01:52:24;;;;;;;6.20;3.17;;;0.70;99.90;;;0.34;64.01;101978.75;5179278;28;20136;-70
2022/03/07 01:54:58;;;;;;;6.45;3.47;;;0.70;99.90;;;0.30;62.91;101984.34;5184168;28;20295;-69
2022/03/07 01:57:30;;;;;;;5.53;3.50;;;0.70;99.10;;;0.32;62.64;101977.66;5184218;28;20053;-71
2022/03/07 02:00:02;;;;;;;8.45;3.75;;;0.70;98.80;;;0.34;62.88;101976.19;5184268;28;20459;-70
2022/03/07 02:02:34;;;;;;;6.78;3.88;;;0.70;99.10;;;0.36;62.40;101982.34;5183483;28;20384;-70
2022/03/07 02:05:07;;;;;;;8.68;4.15;;;0.70;98.70;;;0.36;61.19;101977.22;5185426;28;20387;-70
2022/03/07 02:07:39;;;;;;;5.82;2.97;;;0.70;97.80;;;0.40;60.84;101989.59;5187786;28;20046;-70
2022/03/07 02:10:12;;;;;;;6.13;3.13;;;0.80;97.70;;;0.41;60.53;101981.13;5183881;28;20057;-69
2022/03/07 02:12:44;;;;;;;5.25;2.63;;;0.80;97.00;;;0.42;60.83;101988.97;5187285;28;20053;-71
2022/03/07 02:15:18;;;;;;;5.35;3.03;;;0.80;97.60;;;0.43;60.85;101987.28;5187383;28;20061;-70
2022/03/07 02:17:50;;;;;;;6.55;3.17;;;0.80;97.40;;;0.42;60.75;101983.81;5187547;28;20450;-71
2022/03/07 02:20:22;;;;;;;5.93;3.08;;;0.80;97.30;;;0.42;60.82;101982.94;5187377;28;20049;-70
2022/03/07 02:22:55;;;;;;;5.90;3.10;;;0.80;97.80;;;0.40;61.13;101984.44;5186696;28;20060;-71
2022/03/07 02:25:27;;;;;;;5.03;3.05;;;0.80;97.80;;;0.35;60.99;101981.44;5187182;28;20061;-70
2022/03/07 02:27:59;;;;;;;6.20;3.53;;;0.70;97.90;;;0.30;61.42;101981.78;5186667;28;20054;-70
2022/03/07 02:30:31;;;;;;;7.13;3.33;;;0.70;98.10;;;0.24;61.78;101983.00;5186611;28;20046;-69
2022/03/07 02:33:03;;;;;;;6.97;2.83;;;0.60;98.30;;;0.19;62.08;101988.44;5187140;28;20050;-70
2022/03/07 02:35:35;;;;;;;8.40;3.42;;;0.60;98.50;;;0.14;62.58;101974.31;5186873;28;20053;-70
2022/03/07 02:38:16;;;;;;;8.52;3.30;;;0.50;98.90;;;0.09;62.95;101973.84;5186882;28;20056;-70
2022/03/07 02:40:48;;;;;;;6.85;2.90;;;0.50;99.20;;;0.05;63.35;101979.44;5187326;28;20064;-70
2022/03/07 02:43:21;;;;;;;6.40;3.47;;;0.40;99.40;;;0.02;63.06;101989.41;5187041;28;20100;-69
2022/03/07 02:45:53;;;;;;;6.32;3.13;;;0.40;99.60;;;-0.02;63.47;101979.59;5186707;28;20046;-69
2022/03/07 02:48:25;;;;;;;5.60;3.42;;;0.40;99.70;;;-0.07;63.89;101979.16;5186823;28;20056;-69
2022/03/07 02:50:58;;;;;;;8.70;3.45;;;0.40;99.90;;;-0.10;64.06;101988.22;5187083;28;20046;-69
2022/03/07 02:53:32;;;;;;;7.85;3.60;;;0.30;99.90;;;-0.14;64.43;101983.56;5187042;28;20153;-70
2022/03/07 02:56:05;;;;;;;6.90;2.70;;;0.30;99.90;;;-0.19;64.40;101982.25;5187006;28;20050;-70
2022/03/07 02:58:37;;;;;;;6.50;3.10;;;0.20;99.90;;;-0.22;64.21;101975.13;5186671;28;20065;-70
2022/03/07 03:01:10;;;;;;;5.57;3.22;;;0.20;99.90;;;-0.27;64.32;101979.81;5186559;28;20050;-70
2022/03/07 03:03:42;;;;;;;5.43;2.85;;;0.20;99.90;;;-0.29;64.41;101971.06;5186738;28;20134;-70
2022/03/07 03:06:14;;;;;;;8.05;3.20;;;0.10;99.90;;;-0.30;64.25;101976.97;5186573;28;20050;-70
2022/03/07 03:08:47;;;;;;;6.40;3.40;;;0.10;99.90;;;-0.30;64.55;101973.50;5186397;28;20072;-70
2022/03/07 03:11:19;;;;;;;5.00;2.45;;;0.10;99.90;;;-0.30;64.21;101984.66;5186388;28;20046;-70
2022/03/07 03:13:51;;;;;;;6.38;3.05;;;0.10;99.90;;;-0.33;64.03;101979.25;5186349;28;20054;-70
2022/03/07 03:16:23;;;;;;;6.45;3.30;;;0.10;99.90;;;-0.36;64.36;101972.91;5186471;28;20057;-70
2022/03/07 03:18:55;;;;;;;5.80;2.83;;;0.10;99.90;;;-0.41;65.00;101985.25;5186195;28;20057;-70
2022/03/07 03:21:27;;;;;;;5.40;2.97;;;0.00;99.90;;;-0.44;65.18;101990.09;5186605;28;20479;-70
2022/03/07 03:24:00;;;;;;;4.75;2.60;;;0.00;99.90;;;-0.44;64.85;101986.63;5186324;28;20073;-70
2022/03/07 03:26:32;;;;;;;6.00;2.90;;;0.00;99.90;;;-0.49;64.92;101981.06;5186141;28;20046;-70
2022/03/07 03:29:04;;;;;;;7.55;2.90;;;-0.10;99.90;;;-0.53;65.15;101984.06;5186085;28;20046;-70
2022/03/07 03:31:36;;;;;;;4.55;2.53;;;-0.10;99.90;;;-0.56;65.20;101989.81;5186128;28;20064;-71
2022/03/07 03:34:09;;;;;;;6.35;2.80;;;-0.10;99.90;;;-0.60;65.48;101991.91;5185948;28;20054;-70
2022/03/07 03:36:41;;;;;;;8.13;2.75;;;-0.20;99.90;;;-0.63;65.50;101989.06;5186156;28;20060;-69
2022/03/07 03:39:14;;;;;;;5.82;2.72;;;-0.20;99.90;;;-0.67;65.83;101995.53;5186029;28;20076;-70
2022/03/07 03:41:46;;;;;;;5.05;2.72;;;-0.20;99.90;;;-0.70;66.00;101999.44;5186088;28;20053;-69
2022/03/07 03:44:18;;;;;;;6.70;2.42;;;-0.30;99.90;;;-0.73;66.00;101999.13;5185788;28;20054;-70
2022/03/07 03:46:50;;;;;;;5.40;2.60;;;-0.30;99.90;;;-0.76;66.26;102002.31;5182741;28;20056;-69
2022/03/07 03:49:22;;;;;;;5.05;2.75;;;-0.30;99.90;;;-0.77;66.16;101997.03;5185738;28;20056;-71
2022/03/07 03:51:54;;;;;;;4.75;2.92;;;-0.30;99.90;;;-0.80;66.06;101996.72;5186080;28;20394;-70
2022/03/07 03:54:27;;;;;;;6.60;2.63;;;-0.40;99.90;;;-0.82;66.31;102000.03;5185634;28;20060;-71
2022/03/07 03:56:59;;;;;;;6.20;2.95;;;-0.30;99.90;;;-0.86;66.23;101997.91;5185711;28;20046;-70
2022/03/07 03:59:33;;;;;;;4.63;3.08;;;-0.40;99.90;;;-0.88;66.32;102007.13;5185273;28;20056;-70
2022/03/07 04:02:05;;;;;;;4.30;2.45;;;-0.40;99.90;;;-0.90;66.22;102008.63;5186056;28;20062;-70
2022/03/07 04:04:37;;;;;;;4.75;2.95;;;-0.50;99.90;;;-0.94;66.53;102008.16;5185387;28;20057;-70
2022/03/07 04:07:09;;;;;;;4.88;3.13;;;-0.50;99.90;;;-0.97;66.67;102013.88;5185442;28;20443;-70
2022/03/07 04:09:43;;;;;;;4.90;2.60;;;-0.50;99.90;;;-1.01;66.57;102011.75;5185529;28;20054;-70
2022/03/07 04:12:15;;;;;;;5.38;3.22;;;-0.50;99.90;;;-1.02;66.85;102014.19;5185669;28;20403;-69
2022/03/07 04:14:46;;;;;;;5.25;2.60;;;-0.60;99.90;;;-1.04;67.14;102015.66;5185411;28;20053;-71
2022/03/07 04:17:18;;;;;;;4.35;2.47;;;-0.60;99.90;;;-1.08;66.82;102014.47;5185190;28;20054;-70
2022/03/07 04:19:50;;;;;;;5.22;2.80;;;-0.60;99.90;;;-1.10;66.83;102010.84;5272276;23;20072;-74
2022/03/07 04:22:22;;;;;;;5.75;2.55;;;-0.60;99.90;;;-1.11;66.75;102016.69;5226385;28;20048;-71
2022/03/07 04:24:56;;;;;;;6.35;2.50;;;-0.60;99.90;;;-1.15;67.23;102015.50;5226817;28;20056;-73
2022/03/07 04:27:28;;;;;;;5.80;3.47;;;-0.70;99.90;;;-1.16;67.65;102017.91;5219191;28;20406;-74
2022/03/07 04:30:03;;;;;;;4.50;2.67;;;-0.70;99.90;;;-1.18;67.78;102019.41;5216282;28;20060;-74
2022/03/07 04:32:36;;;;;;;6.55;2.80;;;-0.70;99.90;;;-1.21;68.45;102020.00;5226078;28;20056;-73
2022/03/07 04:35:11;;;;;;;5.05;2.53;;;-0.80;99.90;;;-1.23;68.44;102035.97;5225931;28;20045;-74
2022/03/07 04:37:43;;;;;;;5.88;2.70;;;-0.80;99.90;;;-1.28;68.85;102030.38;5225967;28;20052;-73
2022/03/07 04:40:18;;;;;;;5.03;2.65;;;-0.80;99.90;;;-1.31;68.77;102021.47;5225503;28;20045;-72
2022/03/07 04:42:52;;;;;;;5.97;2.80;;;-0.80;99.90;;;-1.33;68.97;102036.66;5225762;28;20548;-73
2022/03/07 04:45:25;;;;;;;5.50;2.80;;;-0.80;99.90;;;-1.35;69.22;102022.81;5225832;28;20053;-72
2022/03/07 04:47:57;;;;;;;6.00;2.65;;;-0.80;99.90;;;-1.39;69.36;102033.47;5225711;28;20503;-72
2022/03/07 04:50:29;;;;;;;6.28;2.55;;;-0.90;99.90;;;-1.42;69.47;102036.66;5225865;28;20045;-74
2022/03/07 04:53:01;;;;;;;7.43;2.92;;;-0.90;99.90;;;-1.43;69.53;102033.94;5226074;28;20047;-73
2022/03/07 04:55:34;;;;;;;9.68;3.08;;;-0.90;99.90;;;-1.45;69.66;102031.19;5225471;28;20506;-72
2022/03/07 04:58:07;;;;;;;6.05;2.80;;;-1.00;99.90;;;-1.47;69.57;102024.13;5225723;28;20053;-72
2022/03/07 05:00:39;;;;;;;5.78;3.50;;;-1.00;99.90;;;-1.50;69.75;102027.28;5225611;28;20402;-72
2022/03/07 05:03:11;;;;;;;6.63;3.05;;;-1.00;99.90;;;-1.51;69.70;102035.69;5225265;28;20052;-71
2022/03/07 05:05:43;;;;;;;7.72;2.75;;;-1.00;99.90;;;-1.53;69.64;102028.63;5225530;28;20053;-71
2022/03/07 05:08:15;;;;;;;5.22;2.42;;;-1.10;99.90;;;-1.56;69.57;102036.91;5225592;28;20049;-72
2022/03/07 05:10:48;;;;;;;4.22;2.35;;;-1.10;99.90;;;-1.57;69.67;102040.16;5225220;28;20055;-72
2022/03/07 05:13:20;;;;;;;4.55;2.42;;;-1.10;99.90;;;-1.58;69.78;102038.38;5225462;28;20058;-73
2022/03/07 05:15:52;;;;;;;6.38;2.83;;;-1.10;99.90;;;-1.60;69.73;102034.75;5216987;28;20049;-74
2022/03/07 05:18:24;;;;;;;7.25;3.05;;;-1.10;99.90;;;-1.62;69.69;102040.47;5225572;28;20059;-75
2022/03/07 05:20:56;;;;;;;6.75;2.83;;;-1.10;99.90;;;-1.64;69.84;102040.28;5225299;28;20052;-72
2022/03/07 05:23:28;;;;;;;5.15;2.58;;;-1.20;99.90;;;-1.66;69.80;102041.78;5225389;28;20045;-71
2022/03/07 05:26:02;;;;;;;5.45;2.60;;;-1.20;99.90;;;-1.68;70.01;102040.75;5225223;28;20049;-72
2022/03/07 05:28:34;;;;;;;4.63;2.75;;;-1.20;99.90;;;-1.69;69.71;102038.94;5224991;28;20052;-72
2022/03/07 05:31:08;;;;;;;6.60;3.05;;;-1.20;99.90;;;-1.72;69.83;102034.41;5225087;28;20124;-72
2022/03/07 05:33:40;;;;;;;3.85;2.60;;;-1.20;99.90;;;-1.73;69.88;102047.03;5225418;28;20052;-73
2022/03/07 05:36:12;;;;;;;6.82;2.90;;;-1.20;99.90;;;-1.75;70.04;102038.31;5225350;28;20477;-72
2022/03/07 05:38:44;;;;;;;6.10;2.80;;;-1.30;99.90;;;-1.77;70.23;102042.34;5225202;28;20052;-72
2022/03/07 05:41:18;;;;;;;5.18;2.85;;;-1.20;99.90;;;-1.79;70.35;102036.16;5228435;28;20048;-71
2022/03/07 05:43:50;;;;;;;5.75;3.17;;;-1.30;99.90;;;-1.80;70.39;102035.25;5229111;28;20049;-71
2022/03/07 05:46:22;;;;;;;4.93;2.97;;;-1.30;99.90;;;-1.81;70.59;102045.34;5229167;28;20059;-73
2022/03/07 05:48:54;;;;;;;4.72;2.63;;;-1.30;99.90;;;-1.83;70.48;102040.03;5229172;28;20146;-72
2022/03/07 05:51:26;;;;;;;5.53;3.40;;;-1.30;99.90;;;-1.83;70.58;102041.69;5229065;28;20379;-73
2022/03/07 05:53:59;;;;;;;7.35;2.70;;;-1.30;99.90;;;-1.84;70.59;102048.47;5228733;28;20106;-72
2022/03/07 05:56:32;;;;;;;7.68;2.88;;;-1.30;99.90;;;-1.85;70.59;102051.78;5228543;28;20060;-71
2022/03/07 05:59:06;;;;;;;4.90;2.70;;;-1.30;99.90;;;-1.83;70.54;102049.38;5228984;28;20059;-72
2022/03/07 06:01:38;;;;;;;5.88;3.35;;;-1.30;99.90;;;-1.82;70.29;102053.75;5229051;28;20403;-72
2022/03/07 06:04:10;;;;;;;4.93;2.30;;;-1.30;99.90;;;-1.82;70.53;102056.31;5228516;28;20099;-74
2022/03/07 06:06:42;;;;;;;4.53;2.33;;;-1.30;99.90;;;-1.82;70.50;102048.66;5229020;28;20481;-72
2022/03/07 06:09:14;;;;;;;4.55;2.35;;;-1.30;99.90;;;-1.81;70.54;102053.91;5228695;28;20059;-75
2022/03/07 06:11:47;;;;;;;5.07;2.85;;;-1.30;99.90;;;-1.78;70.53;102046.53;5228515;28;20052;-71
2022/03/07 06:14:19;;;;;;;6.05;3.05;;;-1.30;99.90;;;-1.76;70.51;102046.69;5228699;28;20473;-75
2022/03/07 06:16:51;;;;;;;4.85;2.58;;;-1.30;99.90;;;-1.75;70.44;102046.88;5228530;28;20501;-72
2022/03/07 06:19:23;;;;;;;8.30;2.90;;;-1.30;99.90;;;-1.71;70.29;102058.31;5228443;28;20045;-74
2022/03/07 06:21:56;;;;;;;6.18;3.22;;;-1.20;99.90;;;-1.69;70.55;102049.16;5228930;28;20045;-74
2022/03/07 06:24:30;;;;;;;5.10;3.17;;;-1.20;99.90;;;-1.64;70.18;102053.06;5228843;28;20367;-72
2022/03/07 06:27:04;;;;;;;2.88;2.03;;;-1.20;99.90;;;-1.60;70.01;102060.34;5228482;28;20048;-72
2022/03/07 06:29:36;;;;;;;4.80;3.10;;;-1.20;99.90;;;-1.55;69.75;102056.59;5228348;28;20051;-74
2022/03/07 06:32:10;;;;;;;9.20;3.78;;;-1.10;99.90;;;-1.48;69.40;102051.38;5228539;28;20045;-73
2022/03/07 06:34:42;;;;;;;8.13;4.10;;;-1.10;99.90;;;-1.39;69.26;102059.06;5228225;28;20409;-71
2022/03/07 06:37:14;;;;;;;4.68;2.72;;;-1.00;99.90;;;-1.22;69.06;102060.78;5228199;28;20044;-72
2022/03/07 06:39:45;;;;;;;5.85;2.70;;;-0.90;99.90;;;-1.11;68.52;102055.09;5227828;28;20059;-72
2022/03/07 06:42:19;;;;;;;7.85;2.60;;;-0.80;99.90;;;-0.96;68.21;102059.22;5227696;28;20045;-73
2022/03/07 06:44:51;;;;;;;6.10;3.13;;;-0.60;99.90;;;-0.50;67.83;102061.22;5226441;28;20428;-72
2022/03/07 06:47:23;;;;;;;6.38;2.78;;;-0.40;99.90;;;0.23;66.84;102062.34;5221604;28;20326;-71
2022/03/07 06:49:57;;;;;;;6.10;3.15;;;0.00;99.90;;;0.87;64.56;102065.00;5228210;28;20421;-72
2022/03/07 06:52:29;;;;;;;5.07;2.67;;;0.50;99.90;;;0.98;62.38;102056.63;5227159;28;20087;-73
2022/03/07 06:55:01;;;;;;;5.30;2.67;;;0.80;99.90;;;0.90;61.98;102070.41;5227803;28;20049;-73
2022/03/07 06:57:34;;;;;;;4.50;2.75;;;0.90;99.90;;;0.92;62.20;102077.50;5228085;28;20209;-73
2022/03/07 07:00:09;;;;;;;4.97;2.78;;;1.00;99.90;;;2.11;61.03;102070.38;5227678;28;20049;-70
2022/03/07 07:02:41;;;;;;;5.07;3.08;;;1.50;99.90;;;3.15;57.25;102065.66;5227414;28;20053;-75
2022/03/07 07:05:15;;;;;;;8.40;2.92;;;2.20;98.80;;;3.71;54.94;102065.19;5227871;28;20083;-74
2022/03/07 07:07:47;;;;;;;6.95;3.90;;;2.80;96.60;;;3.51;53.89;102062.66;5226710;28;20488;-75
2022/03/07 07:10:19;;;;;;;6.63;2.72;;;3.00;94.50;;;3.23;53.61;102064.59;5225501;28;20496;-74
2022/03/07 07:12:53;;;;;;;10.65;2.97;;;2.90;93.50;;;4.16;53.52;102061.06;5227447;28;20056;-75
2022/03/07 07:15:25;;;;;;;7.55;3.50;;;3.40;93.90;;;5.54;49.72;102073.63;5227477;28;20412;-74
2022/03/07 07:17:57;;;;;;;5.13;3.10;;;4.20;91.80;;;6.38;46.69;102068.59;5227265;28;20045;-75
2022/03/07 07:20:29;;;;;;;5.45;2.70;;;4.90;86.60;;;6.63;45.58;102071.25;5227089;28;20093;-75
2022/03/07 07:23:01;;;;;;;6.70;3.03;;;5.40;81.10;;;7.45;43.90;102070.88;5227173;28;20478;-75
2022/03/07 07:25:33;;;;;;;5.60;3.22;;;6.00;78.70;;;8.78;41.61;102077.88;5227180;28;20049;-75
2022/03/07 07:28:06;;;;;;;5.95;3.00;;;7.00;74.30;;;9.40;39.42;102072.13;5226943;28;20068;-74
2022/03/07 07:30:38;;;;;;;6.30;3.47;;;7.60;69.50;;;9.81;37.96;102079.75;5226752;28;20045;-73
2022/03/07 07:33:10;;;;;;;6.63;3.90;;;8.10;66.00;;;9.64;37.69;102083.06;5227032;28;20375;-74
2022/03/07 07:35:42;;;;;;;8.48;4.53;;;8.20;63.70;;;9.33;37.66;102091.66;5226345;28;20049;-74
2022/03/07 07:38:14;;;;;;;6.55;3.10;;;8.20;63.00;;;9.23;37.88;102084.09;5225975;28;20099;-73
2022/03/07 07:40:46;;;;;;;6.78;2.50;;;8.10;62.70;;;8.92;42.10;102092.63;5226871;28;20048;-73
2022/03/07 07:43:20;;;;;;;6.38;3.30;;;8.00;68.00;;;8.64;40.72;102091.72;5226556;28;20045;-74
2022/03/07 07:45:52;;;;;;;6.80;3.42;;;7.90;66.70;;;8.28;39.81;102098.00;5226382;28;20053;-73
2022/03/07 07:48:24;;;;;;;7.93;3.53;;;7.70;64.40;;;8.10;40.07;102090.84;5225960;28;20418;-73
2022/03/07 07:50:56;;;;;;;6.15;4.25;;;7.50;64.30;;;8.52;40.64;102097.03;5227093;28;20446;-73
2022/03/07 07:53:28;;;;;;;6.15;3.25;;;7.70;66.60;;;8.46;39.90;102085.34;5226456;28;20056;-74
2022/03/07 07:56:01;;;;;;;5.00;3.00;;;7.70;64.10;;;9.15;38.50;102096.66;5224437;28;20059;-72
2022/03/07 07:58:35;;;;;;;5.72;3.20;;;7.90;63.40;;;9.99;36.95;102093.84;5223106;28;20055;-74
2022/03/07 08:01:07;;;;;;;7.72;3.60;;;8.40;62.10;;;11.16;34.91;102096.00;5211872;28;20048;-73
2022/03/07 08:03:39;;;;;;;5.28;3.20;;;9.10;59.80;;;12.22;33.03;102090.13;5222101;28;20067;-74
2022/03/07 08:06:11;;;;;;;6.20;3.03;;;9.90;57.80;;;13.11;31.61;102093.41;5204335;28;20103;-75
2022/03/07 08:08:44;;;;;;;5.57;3.38;;;10.60;55.80;;;13.94;30.44;102090.03;5203764;28;20129;-74
2022/03/07 08:11:16;;;;;;;5.07;2.95;;;11.30;54.50;;;14.69;29.23;102088.75;5222453;28;20049;-73
2022/03/07 08:13:49;;;;;;;4.90;2.97;;;12.00;52.70;;;15.25;28.37;102094.31;5220959;28;20059;-74
2022/03/07 08:16:21;;;;;;;6.80;3.33;;;12.50;51.20;;;15.77;27.19;102086.53;5214400;28;20070;-72
2022/03/07 08:18:53;;;;;;;6.45;3.42;;;13.10;49.60;;;16.07;26.42;102093.69;5214711;28;20400;-73
2022/03/07 08:21:25;;;;;;;6.32;3.40;;;13.50;48.20;;;16.41;25.84;102099.19;5204499;28;20053;-74
2022/03/07 08:24:00;;;;;;;6.65;3.17;;;13.90;47.10;;;16.36;25.19;102092.88;5222153;28;20044;-72
2022/03/07 08:26:32;;;;;;;;;;;14.00;45.70;;;15.83;25.12;102091.13;5226069;28;20098;-74
2022/03/07 08:29:05;;;;;;;6.75;3.35;;;13.80;44.40;;;15.71;26.22;102096.84;5225422;28;19920;-73
2022/03/07 08:31:37;;;;;;;5.18;3.03;;;13.80;46.00;;;16.05;25.98;102090.13;5225840;28;20056;-73
2022/03/07 08:34:09;;;;;;;3.90;3.30;;;14.00;46.00;;;16.41;25.54;102096.56;5225727;28;20048;-73
2022/03/07 08:36:41;;;;;;;4.65;2.92;;;14.30;45.70;;;16.71;25.97;102087.88;5225613;28;20401;-72
2022/03/07 08:39:13;;;;;;;3.67;1.88;;;14.50;46.60;;;15.85;29.52;102082.47;5225333;28;20470;-74
2022/03/07 08:41:45;;;;;;;3.85;3.20;;;14.20;50.70;;;15.64;25.91;102081.72;5225455;28;20453;-74
2022/03/07 08:44:19;;;;;;;5.00;2.70;;;14.20;44.50;;;15.66;25.32;102082.69;5225464;28;20068;-73
2022/03/07 08:46:50;;;;;;;4.85;2.88;;;14.10;44.00;;;14.97;24.53;102084.53;5223350;28;20059;-73
2022/03/07 08:49:22;;;;;;;4.30;2.65;;;13.70;42.50;;;14.67;25.47;102082.53;5223284;28;20087;-72
2022/03/07 08:51:54;;;;;;;5.45;3.25;;;13.40;43.50;;;14.56;25.97;102081.22;5224845;28;20130;-72
2022/03/07 08:54:28;;;;;;;5.20;3.03;;;13.30;44.20;;;13.73;25.88;102077.81;5225763;28;20474;-72
2022/03/07 08:57:00;;;;;;;4.53;2.85;;;12.80;43.20;;;13.60;26.18;102086.00;5224735;28;20056;-73
2022/03/07 08:59:34;;;;;;;3.97;2.85;;;12.70;43.90;;;13.13;26.51;102079.53;5225416;28;20056;-72
2022/03/07 09:02:09;;;;;;;3.72;2.63;;;12.40;43.90;;;12.46;27.41;102076.44;5225782;28;20053;-75
2022/03/07 09:04:41;;;;;;;3.72;2.88;;;11.90;44.50;;;11.32;28.78;102076.81;5225237;28;20135;-72
2022/03/07 09:07:13;;;;;;;4.75;3.08;;;11.30;45.20;;;11.21;29.69;102084.06;5218639;28;20037;-73
2022/03/07 09:09:45;;;;;;;3.88;2.58;;;11.10;46.60;;;11.41;29.71;102077.31;5217791;28;20080;-72
2022/03/07 09:12:18;;;;;;;4.47;2.85;;;11.20;46.80;;;11.31;29.96;102068.09;5212896;28;20052;-72
2022/03/07 09:14:52;;;;;;;4.30;2.70;;;11.10;47.00;;;11.21;30.60;102076.22;5217076;28;20096;-73
2022/03/07 09:17:24;;;;;;;4.45;2.70;;;11.10;48.20;;;10.98;30.24;102085.47;5220718;28;20071;-72
2022/03/07 09:19:56;;;;;;;6.57;3.00;;;11.00;47.10;;;10.72;30.60;102070.13;5218541;28;20057;-72
2022/03/07 09:22:29;;;;;;;3.72;2.50;;;10.80;47.00;;;10.48;30.98;102081.00;5209294;28;20057;-72
2022/03/07 09:25:01;;;;;;;5.60;3.22;;;10.60;47.30;;;10.25;31.62;102086.66;5209437;28;20334;-72
2022/03/07 09:27:34;;;;;;;5.72;3.00;;;10.40;48.40;;;9.18;31.97;102080.31;5209135;28;20133;-72
2022/03/07 09:30:10;;;;;;;6.00;2.92;;;9.70;47.60;;;8.36;33.69;102083.88;5209471;28;20107;-72
2022/03/07 09:32:42;;;;;;;5.25;2.88;;;9.20;48.90;;;7.94;34.67;102084.53;5220001;28;20647;-70
2022/03/07 09:35:14;;;;;;;4.70;2.33;;;8.70;50.10;;;7.98;34.89;102077.03;5224920;28;20041;-70
2022/03/07 09:37:46;;;;;;;4.60;2.55;;;8.50;50.70;;;7.96;34.90;102078.66;5208727;28;20064;-71
2022/03/07 09:40:18;;;;;;;4.13;2.47;;;8.40;51.30;;;8.12;34.58;102081.44;5208973;28;20075;-71
2022/03/07 09:42:51;;;;;;;3.90;2.70;;;8.40;51.10;;;8.15;34.63;102065.19;5208743;28;20406;-71
2022/03/07 09:45:24;;;;;;;3.65;3.10;;;8.30;51.20;;;8.03;34.78;102066.97;5208451;28;20473;-71
2022/03/07 09:47:58;;;;;;;4.72;2.40;;;8.30;51.60;;;8.27;35.33;102063.34;5208518;28;20063;-71
2022/03/07 09:50:30;;;;;;;3.30;2.50;;;8.40;52.10;;;8.62;34.94;102060.44;5208869;28;20056;-70
2022/03/07 09:53:02;;;;;;;3.83;2.70;;;8.60;52.30;;;8.86;34.32;102066.22;5208305;28;20406;-71
2022/03/07 09:55:35;;;;;;;4.13;2.45;;;8.80;51.60;;;9.06;33.88;102064.84;5208694;28;20045;-71
2022/03/07 09:58:08;;;;;;;3.95;2.80;;;8.90;51.30;;;8.92;33.63;102064.00;5208343;28;20053;-72
2022/03/07 10:00:43;;;;;;;6.28;3.30;;;8.90;50.50;;;8.80;33.49;102058.06;5208502;28;20103;-71
2022/03/07 10:03:18;;;;;;;5.43;2.63;;;8.90;50.70;;;9.00;34.40;102053.16;5208517;28;20148;-71
2022/03/07 10:05:50;;;;;;;5.75;2.60;;;8.90;51.50;;;9.28;33.75;102050.56;5208380;28;20041;-72
2022/03/07 10:08:26;;;;;;;5.93;3.38;;;9.10;51.30;;;9.41;33.42;102045.28;5208300;28;20397;-70
2022/03/07 10:10:58;;;;;;;4.80;2.70;;;9.20;50.70;;;9.23;32.80;102052.88;5208304;28;20052;-70
2022/03/07 10:13:30;;;;;;;5.60;2.53;;;9.10;50.10;;;9.07;33.15;102039.75;5208518;28;20055;-70
2022/03/07 10:16:06;;;;;;;4.78;2.72;;;9.10;50.40;;;8.98;33.54;102051.38;5208537;28;20068;-71
2022/03/07 10:21:23;;;;;;;3.90;2.47;;;8.80;50.80;;;8.66;34.45;102048.50;5238460;23;20049;-87
2022/03/07 10:23:57;;;;;;;4.63;2.28;;;8.80;51.40;;;8.54;34.32;102035.66;5212864;28;20137;-87
2022/03/07 10:26:45;;;;;;;3.38;2.38;;;8.70;51.10;;;8.47;34.15;102029.97;5216617;23;20127;-70
2022/03/07 10:29:17;;;;;;;4.13;2.65;;;8.60;51.10;;;8.45;34.25;102039.38;5194659;28;20081;-70
2022/03/07 10:31:51;;;;;;;3.67;2.90;;;8.50;51.30;;;8.45;34.52;102040.25;5187768;28;20392;-72
2022/03/07 10:34:25;;;;;;;3.15;2.50;;;8.50;51.60;;;8.46;34.71;102035.97;5187671;28;20042;-71
2022/03/07 10:36:57;;;;;;;2.88;2.10;;;8.40;51.70;;;9.45;47.68;102032.53;5187567;28;20050;-73
2022/03/07 10:39:29;;;;;;;4.90;2.30;;;9.10;69.60;;;10.24;40.92;102024.94;5187965;28;20556;-72
2022/03/07 10:42:01;;;;;;;7.25;2.20;;;10.00;61.00;;;10.37;36.16;102030.00;5187223;28;20056;-71
2022/03/07 10:44:35;;;;;;;4.10;1.73;;;10.50;54.20;;;10.70;38.95;102019.63;5187199;28;20050;-71